createdAt,value
2019-03-09T00:01:34.185Z,70.92
2019-03-09T00:03:41.135Z,71.01
2019-03-09T00:05:47.826Z,71.26
2019-03-09T00:07:54.481Z,71.39
2019-03-09T00:10:01.132Z,71.59
2019-03-09T00:12:09.412Z,71.94
2019-03-09T00:14:16.138Z,71.93
2019-03-09T00:16:22.795Z,72.22
2019-03-09T00:18:30.558Z,72.29
2019-03-09T00:20:37.213Z,72.62
2019-03-09T00:22:45.511Z,72.54
2019-03-09T00:24:53.845Z,72.76
2019-03-09T00:27:05.092Z,72.94
2019-03-09T00:29:16.366Z,72.88
2019-03-09T00:31:40.765Z,73.10
2019-03-09T00:33:47.474Z,73.32
2019-03-09T00:35:54.199Z,73.69
2019-03-09T00:38:00.962Z,73.65
2019-03-09T00:40:10.995Z,73.78
2019-03-09T00:42:17.663Z,74.11
2019-03-09T00:44:24.415Z,74.20
2019-03-09T00:46:31.142Z,74.18
2019-03-09T00:48:38.172Z,74.19
2019-03-09T00:50:45.857Z,74.41
2019-03-09T00:52:52.503Z,74.50
2019-03-09T00:54:59.243Z,74.63
2019-03-09T00:57:05.982Z,74.77
2019-03-09T00:59:12.717Z,74.79
2019-03-09T01:01:19.365Z,75.11
2019-03-09T01:03:26.148Z,75.21
2019-03-09T01:05:32.805Z,75.27
2019-03-09T01:07:39.464Z,75.38
2019-03-09T01:09:46.152Z,75.54
2019-03-09T01:11:52.872Z,75.53
2019-03-09T01:13:59.539Z,75.80
2019-03-09T01:16:06.215Z,75.66
2019-03-09T01:18:12.875Z,75.65
2019-03-09T01:20:19.603Z,75.61
2019-03-09T01:22:26.353Z,75.45
2019-03-09T01:24:33.014Z,75.25
2019-03-09T01:26:39.756Z,74.99
2019-03-09T01:28:46.426Z,74.93
2019-03-09T01:30:53.166Z,74.85
2019-03-09T01:32:59.820Z,74.84
2019-03-09T01:35:07.304Z,74.76
2019-03-09T01:37:13.961Z,74.50
2019-03-09T01:39:20.617Z,74.32
2019-03-09T01:41:27.298Z,74.29
2019-03-09T01:43:34.026Z,74.20
2019-03-09T01:45:40.700Z,74.10
2019-03-09T01:47:47.374Z,73.97
2019-03-09T01:49:54.026Z,74.09
2019-03-09T01:52:00.674Z,74.01
2019-03-09T01:54:07.439Z,74.12
2019-03-09T01:56:14.144Z,74.23
2019-03-09T01:58:20.829Z,74.30
2019-03-09T02:00:27.595Z,74.43
2019-03-09T02:02:34.245Z,74.40
2019-03-09T02:04:40.900Z,74.52
2019-03-09T02:06:47.589Z,74.51
2019-03-09T02:08:54.245Z,74.85
2019-03-09T02:11:00.914Z,74.87
2019-03-09T02:13:07.712Z,75.22
2019-03-09T02:15:16.536Z,75.32
2019-03-09T02:17:23.185Z,75.51
2019-03-09T02:19:29.883Z,75.67
2019-03-09T02:21:36.610Z,75.95
2019-03-09T02:23:43.269Z,76.17
2019-03-09T02:25:49.950Z,76.58
2019-03-09T02:27:56.621Z,76.55
2019-03-09T02:30:03.440Z,76.86
2019-03-09T02:32:10.218Z,76.77
2019-03-09T02:34:16.874Z,77.04
2019-03-09T02:36:23.530Z,77.15
2019-03-09T02:38:34.774Z,77.22
2019-03-09T02:40:41.511Z,77.38
2019-03-09T02:42:48.167Z,77.47
2019-03-09T02:44:54.837Z,77.59
2019-03-09T02:47:01.559Z,77.62
2019-03-09T02:49:08.282Z,77.69
2019-03-09T02:51:15.033Z,77.75
2019-03-09T02:53:21.771Z,77.66
2019-03-09T02:55:28.441Z,77.56
2019-03-09T02:57:35.102Z,77.60
2019-03-09T02:59:41.772Z,77.75
2019-03-09T03:01:52.761Z,77.76
2019-03-09T03:03:59.447Z,77.98
2019-03-09T03:06:06.174Z,77.99
2019-03-09T03:08:12.833Z,78.04
2019-03-09T03:10:19.634Z,78.15
2019-03-09T03:12:26.279Z,78.35
2019-03-09T03:14:32.933Z,78.40
2019-03-09T03:16:39.681Z,78.64
2019-03-09T03:18:46.345Z,78.79
2019-03-09T03:20:53.009Z,78.97
2019-03-09T03:22:59.712Z,79.06
2019-03-09T03:25:09.155Z,79.14
2019-03-09T03:27:15.875Z,79.42
2019-03-09T03:29:23.552Z,79.64
2019-03-09T03:31:30.204Z,79.54
2019-03-09T03:33:36.942Z,79.78
2019-03-09T03:35:43.633Z,79.87
2019-03-09T03:37:50.225Z,79.93
2019-03-09T03:39:57.021Z,79.95
2019-03-09T03:42:03.805Z,79.83
2019-03-09T03:44:10.578Z,79.83
2019-03-09T03:46:17.245Z,79.82
2019-03-09T03:48:23.924Z,79.92
2019-03-09T03:50:30.678Z,79.74
2019-03-09T03:52:37.377Z,79.65
2019-03-09T03:54:44.077Z,79.46
2019-03-09T03:56:50.816Z,79.24
2019-03-09T03:58:57.581Z,78.99
2019-03-09T04:01:04.328Z,78.62
2019-03-09T04:03:10.983Z,78.39
2019-03-09T04:05:17.710Z,78.07
2019-03-09T04:07:24.588Z,77.76
2019-03-09T04:09:31.239Z,77.51
2019-03-09T04:11:38.093Z,77.37
2019-03-09T04:13:44.783Z,77.27
2019-03-09T04:15:51.545Z,77.26
2019-03-09T04:17:58.230Z,77.21
2019-03-09T04:20:07.031Z,77.26
2019-03-09T04:22:13.772Z,77.35
2019-03-09T04:24:20.406Z,77.35
2019-03-09T04:26:27.162Z,77.45
2019-03-09T04:28:33.819Z,77.52
2019-03-09T04:30:40.480Z,77.52
2019-03-09T04:32:48.181Z,77.43
2019-03-09T04:34:54.840Z,77.48
2019-03-09T04:37:02.598Z,77.54
2019-03-09T04:39:09.346Z,77.52
2019-03-09T04:41:16.100Z,77.55
2019-03-09T04:43:22.751Z,77.75
2019-03-09T04:45:29.509Z,77.69
2019-03-09T04:47:36.230Z,77.81
2019-03-09T04:49:42.878Z,77.93
2019-03-09T04:51:49.556Z,77.88
2019-03-09T04:53:56.206Z,77.92
2019-03-09T04:56:02.871Z,77.89
2019-03-09T04:58:09.618Z,77.77
2019-03-09T05:00:17.151Z,77.89
2019-03-09T05:02:23.816Z,77.85
2019-03-09T05:04:39.977Z,77.72
2019-03-09T05:06:46.636Z,77.76
2019-03-09T05:09:00.140Z,77.88
2019-03-09T05:11:10.003Z,77.68
2019-03-09T05:13:30.800Z,77.58
2019-03-09T05:15:37.464Z,77.63
2019-03-09T05:17:44.226Z,77.58
2019-03-09T05:19:50.906Z,77.53
2019-03-09T05:21:57.624Z,77.47
2019-03-09T05:24:04.313Z,77.40
2019-03-09T05:26:10.960Z,77.33
2019-03-09T05:28:17.620Z,77.28
2019-03-09T05:30:44.589Z,77.28
2019-03-09T05:32:51.313Z,77.23
2019-03-09T05:34:58.073Z,77.17
2019-03-09T05:37:04.732Z,77.05
2019-03-09T05:39:11.377Z,77.05
2019-03-09T05:41:18.112Z,76.86
2019-03-09T05:43:24.874Z,76.66
2019-03-09T05:45:31.553Z,76.40
2019-03-09T05:47:38.209Z,76.05
2019-03-09T05:49:44.905Z,75.75
2019-03-09T05:52:24.603Z,75.28
2019-03-09T05:54:31.341Z,74.75
2019-03-09T05:56:38.014Z,74.27
2019-03-09T05:58:44.751Z,74.01
2019-03-09T06:00:51.451Z,73.83
2019-03-09T06:02:58.134Z,73.96
2019-03-09T06:05:06.539Z,73.99
2019-03-09T06:07:13.197Z,73.92
2019-03-09T06:09:19.879Z,74.08
2019-03-09T06:11:26.605Z,73.88
2019-03-09T06:13:33.332Z,73.96
2019-03-09T06:15:40.026Z,73.68
2019-03-09T06:17:46.683Z,73.52
2019-03-09T06:19:53.351Z,73.28
2019-03-09T06:22:00.035Z,73.12
2019-03-09T06:24:06.687Z,73.10
2019-03-09T06:26:13.342Z,72.58
2019-03-09T06:28:20.018Z,72.14
2019-03-09T06:30:26.675Z,71.38
2019-03-09T06:32:37.702Z,70.63
2019-03-09T06:34:44.384Z,70.55
2019-03-09T06:36:55.439Z,70.71
2019-03-09T06:39:05.736Z,70.17
2019-03-09T06:41:25.705Z,70.19
2019-03-09T06:43:32.459Z,70.40
2019-03-09T06:45:39.295Z,70.96
2019-03-09T06:47:46.041Z,70.74
2019-03-09T06:49:52.699Z,70.82
2019-03-09T06:51:59.366Z,70.54
2019-03-09T06:54:06.043Z,70.25
2019-03-09T06:56:13.703Z,70.47
2019-03-09T06:58:20.364Z,70.47
2019-03-09T07:00:38.992Z,70.39
2019-03-09T07:02:45.637Z,70.45
2019-03-09T07:04:52.306Z,70.22
2019-03-09T07:06:59.059Z,69.83
2019-03-09T07:09:07.421Z,69.96
2019-03-09T07:11:14.262Z,69.84
2019-03-09T07:13:21.018Z,69.18
2019-03-09T07:15:38.906Z,68.63
2019-03-09T07:17:45.644Z,68.58
2019-03-09T07:19:52.320Z,68.29
2019-03-09T07:21:59.066Z,68.34
2019-03-09T07:24:05.740Z,67.67
2019-03-09T07:26:12.527Z,65.73
2019-03-09T07:28:19.167Z,64.70
2019-03-09T07:30:25.836Z,64.50
2019-03-09T07:32:32.513Z,63.62
2019-03-09T07:34:39.166Z,63.29
2019-03-09T07:36:45.818Z,62.79
2019-03-09T07:38:52.513Z,61.77
2019-03-09T07:40:59.175Z,61.03
2019-03-09T07:43:05.989Z,60.08
2019-03-09T07:45:14.576Z,59.19
2019-03-09T07:47:21.238Z,59.68
2019-03-09T07:49:27.984Z,59.57
2019-03-09T07:51:34.679Z,57.19
2019-03-09T07:53:41.334Z,55.98
2019-03-09T07:55:47.997Z,54.76
2019-03-09T07:57:59.136Z,55.13
2019-03-09T08:00:12.880Z,53.69
2019-03-09T08:02:19.619Z,54.19
2019-03-09T08:04:26.306Z,54.63
2019-03-09T08:06:33.039Z,54.31
2019-03-09T08:08:39.769Z,55.10
2019-03-09T08:10:46.472Z,55.94
2019-03-09T08:12:53.187Z,55.94
2019-03-09T08:14:59.907Z,56.32
2019-03-09T08:17:07.437Z,56.76
2019-03-09T08:19:14.098Z,56.47
2019-03-09T08:21:20.760Z,57.00
2019-03-09T08:23:28.437Z,58.26
2019-03-09T08:25:35.090Z,58.12
2019-03-09T08:27:41.746Z,58.03
2019-03-09T08:29:48.428Z,57.60
2019-03-09T08:31:55.099Z,57.66
2019-03-09T08:34:01.830Z,57.54
2019-03-09T08:36:08.503Z,56.92
2019-03-09T08:38:15.157Z,56.35
2019-03-09T08:40:22.921Z,56.44
2019-03-09T08:42:29.645Z,55.43
2019-03-09T08:44:36.294Z,55.13
2019-03-09T08:46:42.974Z,54.64
2019-03-09T08:48:49.650Z,54.55
2019-03-09T08:50:56.307Z,54.49
2019-03-09T08:53:03.016Z,54.42
2019-03-09T08:55:12.232Z,54.03
2019-03-09T08:57:18.976Z,53.05
2019-03-09T08:59:25.651Z,53.57
2019-03-09T09:01:33.347Z,53.29
2019-03-09T09:03:40.102Z,53.98
2019-03-09T09:05:46.800Z,53.56
2019-03-09T09:07:53.442Z,53.89
2019-03-09T09:10:00.365Z,53.41
2019-03-09T09:12:07.090Z,53.37
2019-03-09T09:14:13.854Z,52.79
2019-03-09T09:16:20.512Z,52.41
2019-03-09T09:18:27.906Z,51.60
2019-03-09T09:20:34.609Z,51.12
2019-03-09T09:22:41.308Z,50.61
2019-03-09T09:24:47.942Z,49.13
2019-03-09T09:26:54.630Z,48.55
2019-03-09T09:29:01.306Z,49.14
2019-03-09T09:31:07.976Z,49.02
2019-03-09T09:33:14.683Z,48.08
2019-03-09T09:35:21.550Z,48.57
2019-03-09T09:37:28.214Z,47.74
2019-03-09T09:39:35.019Z,48.30
2019-03-09T09:41:41.750Z,48.27
2019-03-09T09:43:48.418Z,48.35
2019-03-09T09:45:55.103Z,48.32
2019-03-09T09:48:01.834Z,47.49
2019-03-09T09:50:11.904Z,47.87
2019-03-09T09:52:18.594Z,47.76
2019-03-09T09:54:25.336Z,47.27
2019-03-09T09:56:31.979Z,47.25
2019-03-09T09:58:38.739Z,46.46
2019-03-09T10:00:45.484Z,46.72
2019-03-09T10:02:52.228Z,46.57
2019-03-09T10:04:58.915Z,45.84
2019-03-09T10:07:05.596Z,45.38
2019-03-09T10:09:12.315Z,45.76
2019-03-09T10:11:19.076Z,46.06
2019-03-09T10:13:25.825Z,46.14
2019-03-09T10:15:33.905Z,46.34
2019-03-09T10:17:40.666Z,45.40
2019-03-09T10:19:48.323Z,45.00
2019-03-09T10:21:54.978Z,44.48
2019-03-09T10:24:01.655Z,43.63
2019-03-09T10:26:08.308Z,44.11
2019-03-09T10:28:15.037Z,44.31
2019-03-09T10:30:25.725Z,45.57
2019-03-09T10:32:32.386Z,45.31
2019-03-09T10:34:39.134Z,45.06
2019-03-09T10:36:45.879Z,44.29
2019-03-09T10:38:52.551Z,44.34
2019-03-09T10:40:59.274Z,44.11
2019-03-09T10:43:05.974Z,43.83
2019-03-09T10:45:20.794Z,43.44
2019-03-09T10:47:27.530Z,43.95
2019-03-09T10:49:34.223Z,44.28
2019-03-09T10:51:40.974Z,43.68
2019-03-09T10:53:47.696Z,43.53
2019-03-09T10:55:54.425Z,44.06
2019-03-09T10:58:01.166Z,43.97
2019-03-09T11:00:29.864Z,43.31
2019-03-09T11:02:37.667Z,42.84
2019-03-09T11:04:44.535Z,42.66
2019-03-09T11:06:51.209Z,42.37
2019-03-09T11:08:57.889Z,42.17
2019-03-09T11:11:04.556Z,42.14
2019-03-09T11:13:11.219Z,41.69
2019-03-09T11:15:17.986Z,41.93
2019-03-09T11:17:24.655Z,42.11
2019-03-09T11:19:31.366Z,41.74
2019-03-09T11:21:38.138Z,41.07
2019-03-09T11:23:44.858Z,40.67
2019-03-09T11:25:51.639Z,40.27
2019-03-09T11:28:10.353Z,40.41
2019-03-09T11:30:29.936Z,40.47
2019-03-09T11:32:36.575Z,40.48
2019-03-09T11:34:43.261Z,40.21
2019-03-09T11:36:49.916Z,39.75
2019-03-09T11:38:56.588Z,40.39
2019-03-09T11:41:03.356Z,40.69
2019-03-09T11:43:10.010Z,40.74
2019-03-09T11:45:19.259Z,39.69
2019-03-09T11:47:26.023Z,40.21
2019-03-09T11:49:32.681Z,40.28
2019-03-09T11:51:39.486Z,39.92
2019-03-09T11:53:46.191Z,39.94
2019-03-09T11:55:52.852Z,40.04
2019-03-09T11:57:59.587Z,39.95
2019-03-09T12:00:13.544Z,39.85
2019-03-09T12:02:20.199Z,40.06
2019-03-09T12:04:27.796Z,39.76
2019-03-09T12:06:34.561Z,40.03
2019-03-09T12:08:41.226Z,40.05
2019-03-09T12:10:47.880Z,39.57
2019-03-09T12:12:54.639Z,39.49
2019-03-09T12:15:01.302Z,39.93
2019-03-09T12:17:12.470Z,40.29
2019-03-09T12:19:16.511Z,40.42
2019-03-09T12:21:23.319Z,40.38
2019-03-09T12:23:30.289Z,40.21
2019-03-09T12:25:37.063Z,41.01
2019-03-09T12:27:43.722Z,41.32
2019-03-09T12:29:50.382Z,41.79
2019-03-09T12:31:57.142Z,44.88
2019-03-09T12:34:03.880Z,47.93
2019-03-09T12:36:10.548Z,47.84
2019-03-09T12:38:17.250Z,47.33
2019-03-09T12:40:23.994Z,46.61
2019-03-09T12:42:30.725Z,45.35
2019-03-09T12:44:37.472Z,44.94
2019-03-09T12:46:44.133Z,44.94
2019-03-09T12:48:50.869Z,44.56
2019-03-09T12:50:58.559Z,43.54
2019-03-09T12:53:05.226Z,42.64
2019-03-09T12:55:11.885Z,42.77
2019-03-09T12:57:18.568Z,42.49
2019-03-09T12:59:25.301Z,42.08
2019-03-09T13:01:32.041Z,41.63
2019-03-09T13:03:38.817Z,40.79
2019-03-09T13:05:46.803Z,40.28
2019-03-09T13:07:53.670Z,40.89
2019-03-09T13:10:00.425Z,41.73
2019-03-09T13:12:08.799Z,42.84
2019-03-09T13:14:16.623Z,51.00
2019-03-09T13:16:23.375Z,56.49
2019-03-09T13:18:30.028Z,59.81
2019-03-09T13:20:36.680Z,62.01
2019-03-09T13:22:43.426Z,61.93
2019-03-09T13:24:50.165Z,63.09
2019-03-09T13:26:56.803Z,63.46
2019-03-09T13:29:03.563Z,66.41
2019-03-09T13:31:10.282Z,68.29
2019-03-09T13:33:16.931Z,68.40
2019-03-09T13:35:23.798Z,68.77
2019-03-09T13:37:30.538Z,68.66
2019-03-09T13:39:37.198Z,69.17
2019-03-09T13:41:43.947Z,69.54
2019-03-09T13:43:52.091Z,70.59
2019-03-09T13:45:58.832Z,71.46
2019-03-09T13:48:05.505Z,72.32
2019-03-09T13:50:16.435Z,72.72
2019-03-09T13:52:23.172Z,73.01
2019-03-09T13:54:29.865Z,73.92
2019-03-09T13:56:36.521Z,73.93
2019-03-09T13:58:43.183Z,74.86
2019-03-09T14:00:49.939Z,74.97
2019-03-09T14:02:56.605Z,74.76
2019-03-09T14:05:03.477Z,75.59
2019-03-09T14:07:10.160Z,76.35
2019-03-09T14:09:18.445Z,77.55
2019-03-09T14:11:25.115Z,77.67
2019-03-09T14:13:31.841Z,77.72
2019-03-09T14:15:38.584Z,78.00
2019-03-09T14:17:46.302Z,78.48
2019-03-09T14:19:53.051Z,78.96
2019-03-09T14:21:59.705Z,79.20
2019-03-09T14:24:07.886Z,78.86
2019-03-09T14:26:14.641Z,78.94
2019-03-09T14:28:21.362Z,78.48
2019-03-09T14:30:28.195Z,78.57
2019-03-09T14:32:34.938Z,78.48
2019-03-09T14:34:41.592Z,78.22
2019-03-09T14:36:48.260Z,77.97
2019-03-09T14:38:54.928Z,77.71
2019-03-09T14:41:01.654Z,77.77
2019-03-09T14:43:08.309Z,77.47
2019-03-09T14:45:20.381Z,77.43
2019-03-09T14:47:27.100Z,77.26
2019-03-09T14:49:33.755Z,77.29
2019-03-09T14:51:40.565Z,77.56
2019-03-09T14:53:47.282Z,77.88
2019-03-09T14:55:53.982Z,77.05
2019-03-09T14:58:00.693Z,77.28
2019-03-09T15:00:11.721Z,77.71
2019-03-09T15:02:19.909Z,77.78
2019-03-09T15:04:26.602Z,77.82
2019-03-09T15:06:33.327Z,78.45
2019-03-09T15:08:40.076Z,77.21
2019-03-09T15:10:46.765Z,79.17
2019-03-09T15:12:54.035Z,80.13
2019-03-09T15:15:00.689Z,79.33
2019-03-09T15:17:07.572Z,76.99
2019-03-09T15:19:14.298Z,76.06
2019-03-09T15:21:20.946Z,76.27
2019-03-09T15:23:27.631Z,75.60
2019-03-09T15:25:34.282Z,74.98
2019-03-09T15:27:41.673Z,76.83
2019-03-09T15:29:48.416Z,76.64
2019-03-09T15:31:55.063Z,77.76
2019-03-09T15:34:01.776Z,78.35
2019-03-09T15:36:09.461Z,77.98
2019-03-09T15:38:16.180Z,78.36
2019-03-09T15:40:22.850Z,78.44
2019-03-09T15:42:29.605Z,78.28
2019-03-09T15:44:36.245Z,78.05
2019-03-09T15:46:42.973Z,77.31
2019-03-09T15:48:49.656Z,77.39
2019-03-09T15:50:56.393Z,77.42
2019-03-09T15:53:03.130Z,77.54
2019-03-09T15:55:12.162Z,77.67
2019-03-09T15:57:18.970Z,77.76
2019-03-09T15:59:25.613Z,77.29
2019-03-09T16:01:32.294Z,76.61
2019-03-09T16:03:39.018Z,76.97
2019-03-09T16:05:45.673Z,76.55
2019-03-09T16:07:52.429Z,76.28
2019-03-09T16:09:59.162Z,76.27
2019-03-09T16:12:05.997Z,76.10
2019-03-09T16:14:12.687Z,75.59
2019-03-09T16:16:19.393Z,75.98
2019-03-09T16:18:26.135Z,75.92
2019-03-09T16:20:32.892Z,75.55
2019-03-09T16:22:39.629Z,76.03
2019-03-09T16:24:47.811Z,75.76
2019-03-09T16:26:54.680Z,76.05
2019-03-09T16:29:01.334Z,76.15
2019-03-09T16:31:08.054Z,75.92
2019-03-09T16:33:15.238Z,76.28
2019-03-09T16:35:21.883Z,76.25
2019-03-09T16:37:28.538Z,76.07
2019-03-09T16:39:35.214Z,76.08
2019-03-09T16:41:41.867Z,76.24
2019-03-09T16:43:48.599Z,76.18
2019-03-09T16:45:55.305Z,76.89
2019-03-09T16:48:01.951Z,77.00
2019-03-09T16:50:12.633Z,77.21
2019-03-09T16:52:19.394Z,76.98
2019-03-09T16:54:26.203Z,77.09
2019-03-09T16:56:32.923Z,77.09
2019-03-09T16:58:39.727Z,77.19
2019-03-09T17:00:46.465Z,77.20
2019-03-09T17:02:53.187Z,77.71
2019-03-09T17:04:59.867Z,77.39
2019-03-09T17:07:06.532Z,77.52
2019-03-09T17:09:13.314Z,77.95
2019-03-09T17:11:20.045Z,78.02
2019-03-09T17:13:26.771Z,78.23
2019-03-09T17:15:33.426Z,78.35
2019-03-09T17:17:40.687Z,78.67
2019-03-09T17:19:47.407Z,79.20
2019-03-09T17:21:54.145Z,79.40
2019-03-09T17:24:00.899Z,79.61
2019-03-09T17:26:09.112Z,80.21
2019-03-09T17:28:15.773Z,80.30
2019-03-09T17:30:23.095Z,80.66
2019-03-09T17:32:29.862Z,80.88
2019-03-09T17:34:37.544Z,80.85
2019-03-09T17:36:44.298Z,81.02
2019-03-09T17:38:50.965Z,81.02
2019-03-09T17:40:57.622Z,81.13
2019-03-09T17:43:04.407Z,81.29
2019-03-09T17:45:22.815Z,81.33
2019-03-09T17:47:29.551Z,81.22
2019-03-09T17:49:36.306Z,81.50
2019-03-09T17:51:43.036Z,81.56
2019-03-09T17:53:49.748Z,81.78
2019-03-09T17:55:56.502Z,81.98
2019-03-09T17:58:03.231Z,81.83
2019-03-09T18:00:26.647Z,81.71
2019-03-09T18:02:33.410Z,81.98
2019-03-09T18:04:40.134Z,81.99
2019-03-09T18:06:46.795Z,82.18
2019-03-09T18:08:53.544Z,82.28
2019-03-09T18:11:09.578Z,82.25
2019-03-09T18:13:16.325Z,82.32
2019-03-09T18:15:23.023Z,82.32
2019-03-09T18:17:29.765Z,82.23
2019-03-09T18:19:36.428Z,82.40
2019-03-09T18:21:43.244Z,82.36
2019-03-09T18:23:49.965Z,82.29
2019-03-09T18:25:56.695Z,82.16
2019-03-09T18:28:03.447Z,82.34
2019-03-09T18:30:12.584Z,82.26
2019-03-09T18:32:18.372Z,82.16
2019-03-09T18:34:26.560Z,81.99
2019-03-09T18:36:33.211Z,81.90
2019-03-09T18:38:40.371Z,81.95
2019-03-09T18:40:47.132Z,81.92
2019-03-09T18:42:53.787Z,81.87
2019-03-09T18:45:00.519Z,81.99
2019-03-09T18:47:07.743Z,82.23
2019-03-09T18:49:14.390Z,82.17
2019-03-09T18:51:21.056Z,82.00
2019-03-09T18:53:27.821Z,82.09
2019-03-09T18:55:35.480Z,82.03
2019-03-09T18:57:42.199Z,81.96
2019-03-09T18:59:50.185Z,81.93
2019-03-09T19:01:56.905Z,81.99
2019-03-09T19:04:03.633Z,82.11
2019-03-09T19:06:11.399Z,81.86
2019-03-09T19:08:18.241Z,81.78
2019-03-09T19:10:25.560Z,81.83
2019-03-09T19:12:32.305Z,81.80
2019-03-09T19:14:41.294Z,81.64
2019-03-09T19:16:47.474Z,81.56
2019-03-09T19:18:54.229Z,81.53
2019-03-09T19:21:02.048Z,81.56
2019-03-09T19:23:08.790Z,81.55
2019-03-09T19:25:16.549Z,81.57
2019-03-09T19:27:23.775Z,81.66
2019-03-09T19:29:31.437Z,81.66
2019-03-09T19:31:39.999Z,81.63
2019-03-09T19:33:46.653Z,81.55
2019-03-09T19:35:54.836Z,81.49
2019-03-09T19:38:01.630Z,81.48
2019-03-09T19:40:17.281Z,81.58
2019-03-09T19:42:24.018Z,81.78
2019-03-09T19:44:30.776Z,82.01
2019-03-09T19:46:39.042Z,81.90
2019-03-09T19:48:45.701Z,81.77
2019-03-09T19:50:52.461Z,81.68
2019-03-09T19:52:59.542Z,81.74
2019-03-09T19:55:08.743Z,81.86
2019-03-09T19:57:16.897Z,81.66
2019-03-09T19:59:23.621Z,81.55
2019-03-09T20:01:30.381Z,81.56
2019-03-09T20:03:39.307Z,81.37
2019-03-09T20:05:46.037Z,81.24
2019-03-09T20:07:52.778Z,81.25
2019-03-09T20:10:01.549Z,81.60
2019-03-09T20:12:08.565Z,81.69
2019-03-09T20:14:15.221Z,81.91
2019-03-09T20:16:21.970Z,82.22
2019-03-09T20:18:28.696Z,82.52
2019-03-09T20:20:35.425Z,82.75
2019-03-09T20:22:42.115Z,82.88
2019-03-09T20:24:50.119Z,82.99
2019-03-09T20:26:56.782Z,83.00
2019-03-09T20:29:04.142Z,83.06
2019-03-09T20:31:12.364Z,82.79
2019-03-09T20:33:19.083Z,82.68
2019-03-09T20:35:26.545Z,82.58
2019-03-09T20:37:34.909Z,82.39
2019-03-09T20:39:41.575Z,82.31
2019-03-09T20:41:48.326Z,82.23
2019-03-09T20:43:54.969Z,82.16
2019-03-09T20:46:04.173Z,82.19
2019-03-09T20:48:12.516Z,82.20
2019-03-09T20:50:22.993Z,82.06
2019-03-09T20:52:31.339Z,82.00
2019-03-09T20:54:37.988Z,82.15
2019-03-09T20:56:45.630Z,82.08
2019-03-09T20:58:52.844Z,82.13
2019-03-09T21:00:59.595Z,82.13
2019-03-09T21:03:06.321Z,82.11
2019-03-09T21:05:13.248Z,82.15
2019-03-09T21:07:21.708Z,81.98
2019-03-09T21:09:31.235Z,81.71
2019-03-09T21:11:39.245Z,81.57
2019-03-09T21:13:47.450Z,81.37
2019-03-09T21:15:57.405Z,81.24
2019-03-09T21:18:04.162Z,81.12
2019-03-09T21:20:12.077Z,81.09
2019-03-09T21:22:19.332Z,81.09
2019-03-09T21:24:26.059Z,81.09
2019-03-09T21:26:32.813Z,81.08
2019-03-09T21:28:39.557Z,80.86
2019-03-09T21:30:46.289Z,80.69
2019-03-09T21:32:54.861Z,80.41
2019-03-09T21:35:01.583Z,80.16
2019-03-09T21:37:08.744Z,79.88
2019-03-09T21:39:16.897Z,79.62
2019-03-09T21:41:23.737Z,79.16
2019-03-09T21:43:30.392Z,79.02
2019-03-09T21:45:37.145Z,78.81
2019-03-09T21:47:43.966Z,78.78
2019-03-09T21:49:50.628Z,78.68
2019-03-09T21:51:57.315Z,78.57
2019-03-09T21:54:05.843Z,78.31
2019-03-09T21:56:12.578Z,78.48
2019-03-09T21:58:19.250Z,78.41
2019-03-09T22:00:25.917Z,78.45
2019-03-09T22:02:32.640Z,78.40
2019-03-09T22:04:39.388Z,78.44
2019-03-09T22:06:46.053Z,78.36
2019-03-09T22:08:52.780Z,78.42
2019-03-09T22:10:59.532Z,78.43
2019-03-09T22:13:06.871Z,78.40
2019-03-09T22:15:19.928Z,78.48
2019-03-09T22:17:26.695Z,78.53
2019-03-09T22:19:33.346Z,78.82
2019-03-09T22:21:40.085Z,79.07
2019-03-09T22:23:48.532Z,79.22
2019-03-09T22:25:56.137Z,79.33
2019-03-09T22:28:05.041Z,79.52
2019-03-09T22:30:17.621Z,79.55
2019-03-09T22:32:24.328Z,79.66
2019-03-09T22:34:31.067Z,79.76
2019-03-09T22:36:37.747Z,79.86
2019-03-09T22:38:44.880Z,80.04
2019-03-09T22:40:51.544Z,80.12
2019-03-09T22:42:59.883Z,80.24
2019-03-09T22:45:10.655Z,80.23
2019-03-09T22:47:17.309Z,80.30
2019-03-09T22:49:24.990Z,80.54
2019-03-09T22:51:31.911Z,80.74
2019-03-09T22:53:38.628Z,80.81
2019-03-09T22:55:45.308Z,80.90
2019-03-09T22:57:52.268Z,81.00
2019-03-09T22:59:58.988Z,80.96
2019-03-09T23:02:06.343Z,81.02
2019-03-09T23:04:13.080Z,81.10
2019-03-09T23:06:19.739Z,81.13
2019-03-09T23:08:26.525Z,81.07
2019-03-09T23:10:33.185Z,80.99
2019-03-09T23:12:39.842Z,80.97
2019-03-09T23:14:46.554Z,80.96
2019-03-09T23:16:53.269Z,80.86
2019-03-09T23:18:59.986Z,80.90
2019-03-09T23:21:06.667Z,80.94
2019-03-09T23:23:13.311Z,80.84
2019-03-09T23:25:19.952Z,80.82
2019-03-09T23:27:26.641Z,80.93
2019-03-09T23:29:33.382Z,80.92
2019-03-09T23:31:40.044Z,81.03
2019-03-09T23:33:47.718Z,81.10
2019-03-09T23:35:55.387Z,81.08
2019-03-09T23:38:02.036Z,81.12
2019-03-09T23:40:12.246Z,81.25
2019-03-09T23:42:18.972Z,81.25
2019-03-09T23:44:25.640Z,81.12
2019-03-09T23:46:32.332Z,81.04
2019-03-09T23:48:38.979Z,80.96
2019-03-09T23:50:45.638Z,80.81
2019-03-09T23:52:52.321Z,80.67
2019-03-09T23:54:58.983Z,80.51
2019-03-09T23:57:05.713Z,80.48
2019-03-09T23:59:12.390Z,80.51
